Farmdale, Ohio
Current Conditions -  °F | °C
As of 6:51 PM on Friday 28 Nov 2014 (Local Time) from KYNG Reporting Station
Scattered Clouds Scattered Clouds  
Wind Chill: 18°   Ceiling: Unl
Heat Index: 24°   Visibility: 10mi
Dew Point: 15°   Wind: 5mph
Humidity: 69%   Direction: 160°SSE
Pressure: 30.2"   Gusts: NA
Location:  41.43°N, 80.66°W
Report Text: KYNG 282351Z 16004KT 10SM FEW070 SCT095 M04/M09 A3020 RMK AO2 SLP244 4/002 T10441094 11028 21044 58007
Loading
Personal Weather Stations






























Interactive Weather Map New forecast layout! Learn more

10-Day Weather Forecast

Advertisements
Track Severe Weather on mobile